Time;durP1;ratioP1;P1;durP2;ratioP2;P2;SDS_P1;SDS_P2;PMS_P1;PMS_P2;Temp;Humidity;BMP_temperature;BMP_pressure;BME280_temperature;BME280_humidity;BME280_pressure;Samples;Min_cycle;Max_cycle;Signal;HPM_P1;HPM_P2
2022/06/29 00:00:11;;;;;;;9.77;4.97;;;18.90;5.60;;;;;;5074074;28;20169;-69
2022/06/29 00:02:36;;;;;;;7.10;5.10;;;18.90;5.90;;;;;;5073849;28;20255;-68
2022/06/29 00:05:04;;;;;;;29.27;19.10;;;18.80;9.60;;;;;;5074191;28;20252;-68
2022/06/29 00:07:29;;;;;;;12.13;5.40;;;18.80;11.50;;;;;;5073570;28;20694;-69
2022/06/29 00:09:55;;;;;;;8.87;5.03;;;18.70;22.10;;;;;;5073973;28;20177;-68
2022/06/29 00:12:20;;;;;;;7.30;5.07;;;18.60;20.90;;;;;;5073982;28;20246;-69
2022/06/29 00:15:06;;;;;;;10.80;4.87;;;18.60;18.70;;;;;;5073867;28;20285;-69
2022/06/29 00:17:32;;;;;;;18.50;12.57;;;18.50;24.10;;;;;;5073154;28;20169;-67
2022/06/29 00:19:59;;;;;;;13.37;6.50;;;18.50;25.70;;;;;;5073912;28;20188;-68
2022/06/29 00:22:26;;;;;;;13.90;10.37;;;18.50;20.90;;;;;;5073572;28;20172;-70
2022/06/29 00:24:51;;;;;;;15.83;9.13;;;18.40;27.90;;;;;;5073710;28;20169;-68
2022/06/29 00:27:17;;;;;;;8.70;6.50;;;18.40;20.80;;;;;;5073756;28;20187;-68
2022/06/29 00:29:43;;;;;;;11.17;6.40;;;18.40;28.00;;;;;;5073362;28;20175;-68
2022/06/29 00:32:09;;;;;;;10.93;5.50;;;18.30;31.80;;;;;;5073894;28;20222;-69
2022/06/29 00:34:35;;;;;;;20.13;9.73;;;18.30;26.30;;;;;;5073679;28;20715;-68
2022/06/29 00:37:00;;;;;;;26.97;13.53;;;18.30;20.80;;;;;;5073433;28;20204;-68
2022/06/29 00:39:26;;;;;;;27.20;16.77;;;18.30;20.50;;;;;;5073623;28;20165;-69
2022/06/29 00:41:52;;;;;;;10.10;5.43;;;18.30;22.30;;;;;;5073410;28;20215;-69
2022/06/29 00:44:21;;;;;;;16.37;11.33;;;18.30;12.00;;;;;;5073390;28;20168;-69
2022/06/29 00:46:58;;;;;;;16.70;9.67;;;18.40;7.20;;;;;;5073565;28;20169;-69
2022/06/29 00:49:26;;;;;;;12.50;11.07;;;18.50;1.00;;;;;;5073581;28;20247;-68
2022/06/29 00:52:06;;;;;;;2.50;2.30;;;18.60;1.00;;;;;;5073134;28;20212;-69
2022/06/29 00:54:45;;;;;;;4.40;2.47;;;18.60;1.00;;;;;;5071860;28;20199;-68
2022/06/29 00:57:23;;;;;;;7.60;3.80;;;18.80;1.00;;;;;;5073332;28;20197;-68
2022/06/29 00:59:51;;;;;;;14.00;4.80;;;18.90;1.00;;;;;;5073159;28;20172;-69
2022/06/29 01:02:19;;;;;;;8.07;3.17;;;18.80;1.00;;;;;;5073223;28;20169;-68
2022/06/29 01:04:46;;;;;;;8.73;3.60;;;18.90;1.00;;;;;;5072742;28;20168;-69
2022/06/29 01:07:13;;;;;;;3.53;2.63;;;18.90;1.00;;;;;;5072693;28;20320;-68
2022/06/29 01:09:39;;;;;;;2.20;2.10;;;18.90;1.00;;;;;;5073110;28;20572;-68
2022/06/29 01:12:05;;;;;;;3.33;2.30;;;19.00;1.00;;;;;;5072993;28;20204;-68
2022/06/29 01:14:31;;;;;;;2.77;2.53;;;19.00;1.00;;;;;;5073014;28;20624;-69
2022/06/29 01:16:56;;;;;;;4.20;2.50;;;19.00;1.00;;;;;;5073057;28;20294;-68
2022/06/29 01:19:23;;;;;;;7.77;3.43;;;19.10;1.00;;;;;;5072689;28;20164;-68
2022/06/29 01:21:51;;;;;;;7.83;2.60;;;19.10;1.00;;;;;;5072942;28;20695;-69
2022/06/29 01:24:19;;;;;;;4.80;2.80;;;19.20;1.00;;;;;;5073009;28;20175;-69
2022/06/29 01:26:44;;;;;;;5.20;3.37;;;19.20;1.00;;;;;;5073138;28;20218;-69
2022/06/29 01:29:10;;;;;;;2.50;2.30;;;19.10;1.00;;;;;;5074890;28;20172;-69
2022/06/29 01:31:35;;;;;;;16.50;7.80;;;19.10;1.00;;;;;;5077097;28;20285;-68
2022/06/29 01:34:01;;;;;;;7.30;4.70;;;19.10;1.00;;;;;;5076497;28;20639;-69
2022/06/29 01:36:27;;;;;;;7.63;5.27;;;19.10;1.00;;;;;;5077133;28;20180;-68
2022/06/29 01:38:53;;;;;;;6.97;4.17;;;19.00;1.00;;;;;;5077014;28;20238;-68
2022/06/29 01:41:18;;;;;;;12.17;6.43;;;18.90;1.00;;;;;;5076778;28;20168;-68
2022/06/29 01:43:44;;;;;;;10.60;4.77;;;18.80;1.00;;;;;;5076802;28;20692;-69
2022/06/29 01:46:10;;;;;;;6.40;3.10;;;18.80;1.00;;;;;;5076587;28;20221;-69
2022/06/29 01:48:36;;;;;;;40.40;36.20;;;18.80;1.00;;;;;;5076429;28;20188;-69
2022/06/29 01:51:01;;;;;;;7.47;6.77;;;18.80;1.00;;;;;;5076502;28;20342;-68
2022/06/29 01:53:27;;;;;;;8.20;5.93;;;18.70;1.00;;;;;;5076561;28;20329;-69
2022/06/29 01:55:53;;;;;;;7.90;3.80;;;18.70;1.00;;;;;;5076634;28;20176;-68
2022/06/29 01:58:19;;;;;;;10.13;5.13;;;18.60;1.00;;;;;;5076559;28;20943;-69
2022/06/29 02:00:45;;;;;;;3.93;3.03;;;18.60;1.00;;;;;;5076615;28;20262;-69
2022/06/29 02:03:10;;;;;;;7.73;3.80;;;18.60;1.00;;;;;;5075866;28;20180;-68
2022/06/29 02:05:36;;;;;;;5.47;3.53;;;18.60;1.00;;;;;;5076238;28;20169;-69
2022/06/29 02:08:02;;;;;;;5.33;3.77;;;18.60;1.00;;;;;;5076198;28;20278;-68
2022/06/29 02:10:28;;;;;;;17.37;4.87;;;18.50;1.00;;;;;;5076154;28;20721;-69
2022/06/29 02:12:54;;;;;;;6.57;3.33;;;18.40;1.00;;;;;;5076397;28;20184;-69
2022/06/29 02:15:20;;;;;;;5.13;2.70;;;18.50;1.00;;;;;;5076362;28;20536;-68
2022/06/29 02:17:45;;;;;;;6.87;3.70;;;18.50;1.00;;;;;;5075601;28;20181;-69
2022/06/29 02:20:12;;;;;;;7.63;4.97;;;18.40;1.00;;;;;;5076110;28;20267;-69
2022/06/29 02:22:39;;;;;;;8.37;4.17;;;18.20;21.10;;;;;;5075992;28;20164;-69
2022/06/29 02:25:05;;;;;;;8.73;4.40;;;17.90;29.40;;;;;;5076181;28;20238;-69
2022/06/29 02:27:30;;;;;;;7.73;4.00;;;17.70;48.50;;;;;;5075853;28;20168;-69
2022/06/29 02:29:56;;;;;;;8.33;3.90;;;17.50;58.60;;;;;;5075736;28;20518;-69
2022/06/29 02:35:06;;;;;;;5.43;3.63;;;17.50;38.50;;;;;;5075825;28;20207;-69
2022/06/29 02:37:32;;;;;;;4.87;3.40;;;17.50;32.60;;;;;;5075872;28;20215;-68
2022/06/29 02:39:57;;;;;;;3.70;3.40;;;17.50;25.40;;;;;;5074753;28;20624;-69
2022/06/29 02:42:23;;;;;;;4.37;3.10;;;17.60;20.10;;;;;;5075428;28;20165;-69
2022/06/29 02:44:49;;;;;;;8.20;4.10;;;17.70;9.90;;;;;;5075563;28;20161;-68
2022/06/29 02:47:16;;;;;;;10.73;3.47;;;17.80;18.80;;;;;;5075271;28;20192;-68
2022/06/29 02:49:42;;;;;;;13.17;4.20;;;17.90;9.00;;;;;;5075500;28;20247;-67
2022/06/29 02:52:08;;;;;;;6.03;2.77;;;17.90;9.10;;;;;;5075407;28;20216;-67
2022/06/29 02:54:33;;;;;;;4.90;3.50;;;17.90;1.00;;;;;;5075472;28;20181;-69
2022/06/29 02:56:59;;;;;;;6.43;3.23;;;18.00;1.00;;;;;;5075559;28;20199;-68
2022/06/29 02:59:24;;;;;;;3.97;2.97;;;18.00;1.00;;;;;;5075334;28;20172;-67
2022/06/29 03:01:50;;;;;;;4.50;3.70;;;18.00;1.00;;;;;;5074975;28;20180;-69
2022/06/29 03:04:16;;;;;;;8.07;4.00;;;18.10;1.00;;;;;;5075291;28;20183;-68
2022/06/29 03:06:41;;;;;;;6.20;3.50;;;18.10;7.70;;;;;;5075176;28;20227;-69
2022/06/29 03:09:08;;;;;;;6.20;3.63;;;18.10;1.00;;;;;;5074022;28;20621;-67
2022/06/29 03:11:33;;;;;;;8.20;4.27;;;18.00;1.00;;;;;;5075107;28;20212;-67
2022/06/29 03:13:59;;;;;;;7.57;4.20;;;18.00;5.00;;;;;;5074976;28;20165;-69
2022/06/29 03:16:25;;;;;;;9.83;4.00;;;18.00;5.50;;;;;;5075208;28;20212;-69
2022/06/29 03:18:51;;;;;;;6.33;4.70;;;18.00;6.60;;;;;;5074959;28;20168;-67
2022/06/29 03:21:17;;;;;;;7.77;4.27;;;17.90;17.00;;;;;;5074867;28;20654;-68
2022/06/29 03:23:44;;;;;;;8.40;4.13;;;17.90;20.30;;;;;;5074822;28;20180;-68
2022/06/29 03:26:10;;;;;;;4.90;3.87;;;17.90;15.10;;;;;;5074900;28;20191;-68
2022/06/29 03:28:36;;;;;;;6.47;4.13;;;18.00;10.30;;;;;;5074516;28;20184;-68
2022/06/29 03:31:02;;;;;;;7.93;2.80;;;17.90;19.30;;;;;;5073983;28;20736;-68
2022/06/29 03:33:28;;;;;;;4.67;3.20;;;17.90;1.00;;;;;;5074554;28;20184;-67
2022/06/29 03:35:54;;;;;;;5.00;3.97;;;18.00;1.00;;;;;;5074761;28;20583;-68
2022/06/29 03:38:19;;;;;;;10.70;4.03;;;18.00;1.00;;;;;;5074623;28;20634;-68
2022/06/29 03:40:45;;;;;;;13.83;5.07;;;18.00;1.00;;;;;;5074495;28;20172;-68
2022/06/29 03:43:11;;;;;;;7.40;3.83;;;18.00;1.40;;;;;;5073002;28;20647;-68
2022/06/29 03:45:36;;;;;;;4.77;3.77;;;18.00;1.00;;;;;;5074067;28;20171;-68
2022/06/29 03:48:02;;;;;;;8.77;3.70;;;18.00;1.00;;;;;;5074498;28;20216;-68
2022/06/29 03:50:28;;;;;;;6.17;3.90;;;18.10;1.00;;;;;;5074265;28;20215;-68
2022/06/29 03:52:53;;;;;;;8.53;4.10;;;18.20;1.00;;;;;;5074121;28;20251;-68
2022/06/29 03:55:19;;;;;;;6.30;4.23;;;18.50;1.00;;;;;;5074067;28;20197;-69
2022/06/29 03:57:45;;;;;;;4.70;3.73;;;18.80;1.00;;;;;;5073858;28;20173;-69
2022/06/29 04:00:11;;;;;;;6.70;3.93;;;19.20;1.00;;;;;;5073833;28;20176;-69
2022/06/29 04:02:37;;;;;;;8.33;3.70;;;19.50;1.00;;;;;;5073854;28;20176;-69
2022/06/29 04:05:04;;;;;;;6.32;3.80;;;19.80;1.00;;;;;;5073631;28;20591;-69
2022/06/29 04:07:31;;;;;;;6.13;3.40;;;20.10;1.00;;;;;;5073671;28;20698;-69
2022/06/29 04:09:59;;;;;;;11.05;3.90;;;20.30;1.00;;;;;;5074024;28;20168;-69
2022/06/29 04:12:29;;;;;;;11.18;4.07;;;20.40;1.00;;;;;;5073534;28;20168;-69
2022/06/29 04:14:55;;;;;;;6.78;3.65;;;20.30;1.00;;;;;;5073422;28;20255;-69
2022/06/29 04:17:20;;;;;;;9.10;3.75;;;20.10;1.00;;;;;;5073805;28;20531;-69
2022/06/29 04:19:46;;;;;;;10.23;3.53;;;20.40;1.00;;;;;;5073723;28;20169;-69
2022/06/29 04:22:11;;;;;;;10.25;4.13;;;21.30;1.00;;;;;;5073620;28;20196;-70
2022/06/29 04:24:37;;;;;;;5.00;3.22;;;22.40;1.00;;;;;;5073671;28;20168;-70
2022/06/29 04:27:03;;;;;;;7.10;3.42;;;23.60;1.00;;;;;;5073807;28;20284;-70
2022/06/29 04:29:28;;;;;;;8.15;3.22;;;24.50;1.00;;;;;;5073098;28;20187;-70
2022/06/29 04:31:54;;;;;;;8.23;3.20;;;25.40;1.00;;;;;;5073407;28;20215;-70
2022/06/29 04:34:20;;;;;;;9.68;3.60;;;26.50;1.00;;;;;;5073572;28;20168;-70
2022/06/29 04:36:45;;;;;;;7.80;3.25;;;27.40;1.00;;;;;;5071950;28;20627;-70
2022/06/29 04:39:11;;;;;;;8.00;3.17;;;28.20;99.90;;;;;;5073431;28;20509;-70
2022/06/29 04:41:36;;;;;;;4.40;2.80;;;29.00;99.90;;;;;;5073200;28;20168;-70
2022/06/29 04:44:02;;;;;;;8.68;3.10;;;29.40;99.90;;;;;;5072924;28;20278;-71
2022/06/29 04:46:28;;;;;;;8.10;3.10;;;29.50;99.90;;;;;;5073304;28;20179;-71
2022/06/29 04:48:56;;;;;;;6.03;3.40;;;30.30;99.90;;;;;;5072750;28;20282;-69
2022/06/29 04:51:24;;;;;;;9.07;3.53;;;30.90;99.90;;;;;;5072923;28;20386;-70
2022/06/29 04:53:53;;;;;;;8.38;3.55;;;31.30;99.90;;;;;;5071374;28;20192;-70
2022/06/29 04:56:20;;;;;;;11.77;3.67;;;31.50;99.90;;;;;;5073063;28;20208;-70
2022/06/29 04:58:46;;;;;;;9.40;2.88;;;31.90;99.90;;;;;;5072235;28;20179;-71
2022/06/29 05:01:11;;;;;;;5.97;2.80;;;31.70;99.90;;;;;;5072383;28;20350;-70
2022/06/29 05:03:37;;;;;;;4.70;2.75;;;31.70;99.90;;;;;;5072514;28;20275;-70
2022/06/29 05:06:03;;;;;;;5.13;2.70;;;31.70;99.90;;;;;;5072653;28;20164;-70
2022/06/29 05:08:28;;;;;;;8.38;4.22;;;31.40;99.90;;;;;;5071910;28;20224;-70
2022/06/29 05:10:54;;;;;;;6.85;2.78;;;31.90;99.90;;;;;;5072216;28;20276;-70
2022/06/29 05:13:20;;;;;;;4.40;3.00;;;32.30;99.90;;;;;;5072243;28;20327;-70
2022/06/29 05:15:46;;;;;;;8.32;3.30;;;32.90;99.90;;;;;;5072337;28;20635;-70
2022/06/29 05:18:12;;;;;;;5.57;2.63;;;33.00;99.90;;;;;;5072099;28;20173;-70
2022/06/29 05:20:37;;;;;;;12.93;4.22;;;33.40;99.90;;;;;;5072708;28;20217;-70
2022/06/29 05:23:04;;;;;;;7.63;3.38;;;33.90;99.90;;;;;;5072445;28;20180;-70
2022/06/29 05:25:30;;;;;;;9.40;2.90;;;34.00;99.90;;;;;;5072225;28;20173;-70
2022/06/29 05:27:56;;;;;;;11.10;3.03;;;34.70;97.50;;;;;;5071928;28;20169;-70
2022/06/29 05:30:21;;;;;;;7.70;2.72;;;35.00;92.10;;;;;;5072566;28;20207;-70
2022/06/29 05:32:47;;;;;;;6.35;3.10;;;35.10;84.40;;;;;;5072122;28;20580;-71
2022/06/29 05:35:13;;;;;;;7.20;3.03;;;35.50;74.30;;;;;;5072343;28;20302;-71
2022/06/29 05:37:39;;;;;;;7.43;3.42;;;35.70;64.10;;;;;;5072387;28;20173;-70
2022/06/29 05:40:05;;;;;;;5.10;2.90;;;35.20;60.80;;;;;;5071811;28;20168;-70
2022/06/29 05:42:31;;;;;;;8.32;3.10;;;36.00;59.10;;;;;;5070555;28;20214;-71
2022/06/29 05:44:57;;;;;;;4.38;2.67;;;36.60;48.90;;;;;;5071716;28;20589;-71
2022/06/29 05:47:22;;;;;;;5.78;2.67;;;37.00;40.20;;;;;;5071753;28;20200;-71
2022/06/29 05:49:48;;;;;;;7.63;3.38;;;37.30;32.20;;;;;;5070150;28;20180;-71
2022/06/29 05:52:13;;;;;;;7.95;3.13;;;37.50;28.40;;;;;;5072204;28;20215;-71
2022/06/29 05:54:39;;;;;;;7.55;3.20;;;38.10;25.10;;;;;;5071920;28;20571;-70
2022/06/29 05:57:05;;;;;;;7.80;3.15;;;37.70;22.70;;;;;;5071773;28;20597;-72
2022/06/29 05:59:31;;;;;;;11.45;3.72;;;37.60;21.80;;;;;;5071734;28;20576;-71
2022/06/29 06:01:57;;;;;;;8.50;3.05;;;37.20;17.90;;;;;;5072036;28;20176;-71
2022/06/29 06:04:23;;;;;;;6.45;2.67;;;36.40;20.80;;;;;;5071199;28;20172;-71
2022/06/29 06:06:48;;;;;;;5.47;3.08;;;36.30;21.80;;;;;;5071185;28;20256;-71
2022/06/29 06:09:14;;;;;;;6.70;3.25;;;36.00;20.90;;;;;;5070555;28;20180;-73
2022/06/29 06:11:40;;;;;;;9.27;3.50;;;35.80;20.40;;;;;;5071130;28;20196;-70
2022/06/29 06:14:05;;;;;;;4.85;3.20;;;35.10;23.20;;;;;;5071945;28;20173;-70
2022/06/29 06:16:31;;;;;;;9.32;3.08;;;35.80;21.70;;;;;;5073932;28;20183;-70
2022/06/29 06:18:56;;;;;;;7.63;3.20;;;35.50;21.00;;;;;;5075166;28;20635;-70
2022/06/29 06:21:22;;;;;;;11.55;3.42;;;36.20;17.20;;;;;;5075165;28;20183;-71
2022/06/29 06:23:48;;;;;;;12.07;3.05;;;36.30;17.40;;;;;;5075144;28;20179;-70
2022/06/29 06:26:14;;;;;;;6.85;3.67;;;35.10;19.00;;;;;;5075197;28;20175;-72
2022/06/29 06:28:40;;;;;;;11.45;3.88;;;36.70;18.00;;;;;;5075106;28;20222;-72
2022/06/29 06:31:07;;;;;;;8.55;3.22;;;37.30;12.90;;;;;;5074917;28;20599;-72
2022/06/29 06:33:35;;;;;;;6.85;3.20;;;37.50;10.50;;;;;;5074817;28;20266;-72
2022/06/29 06:36:01;;;;;;;5.13;3.33;;;37.90;9.50;;;;;;5073595;28;20177;-72
2022/06/29 06:38:27;;;;;;;6.10;3.17;;;39.00;3.50;;;;;;5074761;28;20632;-71
2022/06/29 06:43:37;;;;;;;10.05;3.65;;;39.40;1.00;;;;;;5075619;28;20263;-71
2022/06/29 06:46:03;;;;;;;5.35;2.67;;;39.80;1.00;;;;;;5074478;28;20258;-71
2022/06/29 06:48:28;;;;;;;9.63;3.40;;;39.90;1.00;;;;;;5074945;28;20255;-71
2022/06/29 06:50:54;;;;;;;7.03;2.72;;;39.90;1.00;;;;;;5073516;28;20289;-71
2022/06/29 06:53:19;;;;;;;8.23;2.97;;;39.90;1.00;;;;;;5074922;28;20176;-71
2022/06/29 06:55:45;;;;;;;4.90;2.50;;;39.10;1.00;;;;;;5074475;28;20534;-72
2022/06/29 06:58:10;;;;;;;8.68;3.25;;;38.80;1.00;;;;;;5075043;28;20167;-71
2022/06/29 07:00:36;;;;;;;11.05;3.55;;;38.20;1.00;;;;;;5074242;28;20203;-72
2022/06/29 07:03:02;;;;;;;10.93;3.53;;;39.30;1.00;;;;;;5073868;28;20611;-72
2022/06/29 07:05:27;;;;;;;7.38;3.10;;;39.70;1.00;;;;;;5073822;28;20180;-72
2022/06/29 07:07:53;;;;;;;7.30;3.03;;;40.10;1.00;;;;;;5073273;28;20315;-72
2022/06/29 07:10:18;;;;;;;9.73;3.72;;;41.30;1.00;;;;;;5074561;28;20229;-71
2022/06/29 07:12:44;;;;;;;12.40;3.22;;;41.80;1.00;;;;;;5074426;28;20183;-71
2022/06/29 07:15:10;;;;;;;6.45;2.78;;;41.60;1.00;;;;;;5074392;28;20156;-71
2022/06/29 07:17:35;;;;;;;7.10;3.42;;;41.30;1.00;;;;;;5074545;28;20222;-72
2022/06/29 07:20:01;;;;;;;10.05;3.58;;;41.10;1.00;;;;;;5073878;28;20187;-72
2022/06/29 07:22:27;;;;;;;11.80;3.30;;;41.00;1.00;;;;;;5073602;28;20740;-72
2022/06/29 07:24:52;;;;;;;10.00;3.78;;;40.70;1.00;;;;;;5074741;28;20171;-70
2022/06/29 07:27:18;;;;;;;8.20;3.50;;;39.00;1.00;;;;;;5073699;28;20537;-70
2022/06/29 07:29:43;;;;;;;8.18;3.72;;;38.30;1.00;;;;;;5074549;28;20175;-71
2022/06/29 07:32:09;;;;;;;6.45;3.67;;;38.50;1.00;;;;;;5073912;28;20204;-72
2022/06/29 07:34:35;;;;;;;6.03;3.22;;;39.40;1.00;;;;;;5074754;28;20169;-73
2022/06/29 07:37:00;;;;;;;6.78;3.50;;;39.00;1.00;;;;;;5073246;28;20171;-71
2022/06/29 07:39:30;;;;;;;10.05;3.50;;;38.80;1.00;;;;;;5074351;28;20179;-71
2022/06/29 07:41:56;;;;;;;10.48;3.55;;;39.00;1.00;;;;;;5073806;28;20184;-72
2022/06/29 07:44:21;;;;;;;7.80;3.65;;;40.10;1.00;;;;;;5074142;28;20213;-72
2022/06/29 07:46:47;;;;;;;8.00;3.97;;;39.50;1.00;;;;;;5074084;28;20176;-72
2022/06/29 07:49:12;;;;;;;4.78;3.22;;;39.20;1.00;;;;;;5073711;28;20175;-72
2022/06/29 07:51:38;;;;;;;6.68;3.63;;;38.30;1.00;;;;;;5073350;28;20666;-73
2022/06/29 07:54:04;;;;;;;5.53;3.95;;;36.90;1.00;;;;;;5073752;28;20394;-73
2022/06/29 07:56:32;;;;;;;6.20;3.30;;;36.50;1.00;;;;;;5073842;28;20175;-72
2022/06/29 07:59:00;;;;;;;7.53;3.58;;;37.40;1.00;;;;;;5073554;28;20194;-71
2022/06/29 08:01:26;;;;;;;5.78;4.75;;;38.70;1.00;;;;;;5073810;28;20623;-71
2022/06/29 08:03:53;;;;;;;7.22;2.97;;;39.80;1.00;;;;;;5072911;28;20168;-73
2022/06/29 08:06:19;;;;;;;7.13;3.50;;;39.30;1.00;;;;;;5072776;28;20272;-72
2022/06/29 08:08:44;;;;;;;7.13;3.97;;;39.40;1.00;;;;;;5073707;28;20259;-71
2022/06/29 08:11:10;;;;;;;6.93;3.70;;;39.70;1.00;;;;;;5073564;28;20624;-71
2022/06/29 08:13:38;;;;;;;8.73;3.90;;;40.00;1.00;;;;;;5073000;28;20211;-71
2022/06/29 08:16:04;;;;;;;7.78;3.35;;;40.10;1.00;;;;;;5073687;28;20272;-71
2022/06/29 08:18:30;;;;;;;4.38;3.63;;;40.00;1.00;;;;;;5073168;28;20172;-72
2022/06/29 08:20:56;;;;;;;7.45;3.30;;;40.30;1.00;;;;;;5073356;28;20274;-73
2022/06/29 08:23:21;;;;;;;8.75;3.80;;;40.00;1.00;;;;;;5073403;28;20595;-72
2022/06/29 08:25:47;;;;;;;5.35;3.13;;;40.30;1.00;;;;;;5073505;28;20168;-73
2022/06/29 08:28:12;;;;;;;6.78;3.80;;;40.30;1.00;;;;;;5073303;28;20254;-73
2022/06/29 08:30:38;;;;;;;5.43;4.20;;;40.50;1.00;;;;;;5072897;28;20213;-73
2022/06/29 08:33:03;;;;;;;5.57;3.97;;;40.50;1.00;;;;;;5072886;28;20616;-73
2022/06/29 08:35:30;;;;;;;4.65;4.00;;;40.40;1.00;;;;;;5073046;28;20164;-73
2022/06/29 08:37:55;;;;;;;5.90;4.20;;;40.70;1.00;;;;;;5072242;28;20225;-73
2022/06/29 08:40:21;;;;;;;7.07;4.63;;;40.30;1.00;;;;;;5072592;28;20168;-73
2022/06/29 08:42:47;;;;;;;11.32;4.45;;;39.90;1.00;;;;;;5073082;28;20258;-72
2022/06/29 08:45:14;;;;;;;6.28;4.65;;;40.10;1.00;;;;;;5073169;28;20251;-72
2022/06/29 08:47:43;;;;;;;8.55;4.35;;;39.70;1.00;;;;;;5073038;28;20168;-73
2022/06/29 08:50:11;;;;;;;10.02;4.68;;;39.90;1.00;;;;;;5072338;28;20168;-71
2022/06/29 08:52:38;;;;;;;9.20;4.70;;;40.50;1.00;;;;;;5072575;28;20218;-72
2022/06/29 08:57:50;;;;;;;7.90;4.22;;;38.50;1.00;;;;;;5072837;28;20256;-71
2022/06/29 09:00:15;;;;;;;9.88;4.97;;;38.00;1.00;;;;;;5072333;28;20259;-73
2022/06/29 09:02:43;;;;;;;6.15;4.45;;;38.30;1.00;;;;;;5073159;28;20619;-71
2022/06/29 09:05:09;;;;;;;7.30;4.75;;;39.00;1.00;;;;;;5072004;28;20203;-73
2022/06/29 09:07:35;;;;;;;5.63;4.45;;;38.90;1.00;;;;;;5072514;28;20247;-72
2022/06/29 09:10:13;;;;;;;6.88;4.43;;;39.70;1.00;;;;;;5072586;28;20221;-72
2022/06/29 09:12:39;;;;;;;9.30;4.80;;;39.30;1.00;;;;;;5072855;28;20195;-72
2022/06/29 09:15:07;;;;;;;7.75;4.60;;;39.70;1.00;;;;;;5072840;28;20179;-73
2022/06/29 09:17:37;;;;;;;10.20;4.63;;;39.50;1.00;;;;;;5072286;28;20654;-72
2022/06/29 09:20:04;;;;;;;9.95;4.78;;;39.80;1.00;;;;;;5071974;28;20172;-72
2022/06/29 09:22:29;;;;;;;7.05;4.72;;;39.40;1.00;;;;;;5071808;28;20566;-72
2022/06/29 09:24:55;;;;;;;6.85;3.90;;;39.40;1.00;;;;;;5072764;28;20202;-72
2022/06/29 09:27:24;;;;;;;6.65;4.20;;;39.70;1.00;;;;;;5072607;28;20523;-72
2022/06/29 09:29:50;;;;;;;9.38;4.35;;;38.60;1.00;;;;;;5072647;28;20264;-72
2022/06/29 09:32:17;;;;;;;6.03;4.53;;;38.60;1.00;;;;;;5071765;28;20637;-72
2022/06/29 09:34:48;;;;;;;8.18;4.00;;;39.00;1.00;;;;;;5071638;28;20164;-71
2022/06/29 09:37:17;;;;;;;8.15;3.42;;;38.70;1.00;;;;;;5071704;28;20228;-71
2022/06/29 09:39:45;;;;;;;9.18;3.20;;;38.40;1.00;;;;;;5070549;28;20720;-71
2022/06/29 09:42:16;;;;;;;4.70;3.30;;;37.90;1.00;;;;;;5070768;28;20568;-72
2022/06/29 09:44:43;;;;;;;8.30;3.28;;;37.90;1.00;;;;;;5072220;28;20171;-72
2022/06/29 09:47:15;;;;;;;5.82;2.60;;;38.20;1.00;;;;;;5071653;28;20175;-72
2022/06/29 09:49:43;;;;;;;5.53;2.30;;;37.60;1.00;;;;;;5072984;28;20156;-72
2022/06/29 09:52:09;;;;;;;5.22;3.25;;;37.20;1.00;;;;;;5074862;28;20507;-73
2022/06/29 09:54:44;;;;;;;5.28;2.60;;;38.00;1.00;;;;;;5076184;28;20202;-72
2022/06/29 09:57:12;;;;;;;3.15;2.00;;;38.20;1.00;;;;;;5075969;28;20160;-72
2022/06/29 10:02:37;;;;;;;4.13;2.20;;;38.10;1.00;;;;;;5075766;28;20646;-73
2022/06/29 10:05:14;;;;;;;8.55;2.40;;;38.10;1.00;;;;;;5075731;28;20164;-73
2022/06/29 10:07:43;;;;;;;3.78;2.53;;;37.80;1.00;;;;;;5075908;28;20216;-72
2022/06/29 10:10:11;;;;;;;6.30;2.90;;;37.30;1.00;;;;;;5075510;28;20179;-72
2022/06/29 10:15:38;;;;;;;3.00;1.80;;;37.30;1.00;;;;;;5075098;28;20190;-72
2022/06/29 10:18:16;;;;;;;2.33;1.60;;;37.40;1.00;;;;;;5074308;28;20179;-72
2022/06/29 10:20:45;;;;;;;4.05;1.70;;;38.00;1.00;;;;;;5075815;28;20623;-72
2022/06/29 10:23:47;;;;;;;6.57;1.80;;;37.10;1.00;;;;;;5074255;28;20216;-72
2022/06/29 10:26:28;;;;;;;3.63;1.55;;;37.20;1.00;;;;;;5075514;28;20274;-72
2022/06/29 10:28:54;;;;;;;2.40;1.48;;;37.40;1.00;;;;;;5074531;28;20160;-73
2022/06/29 10:31:51;;;;;;;3.03;1.48;;;37.40;1.00;;;;;;5074034;28;20226;-73
2022/06/29 10:34:32;;;;;;;4.50;1.70;;;36.80;1.00;;;;;;5074754;28;20172;-72
2022/06/29 10:37:07;;;;;;;7.03;1.90;;;36.50;1.00;;;;;;5073210;28;20217;-71
2022/06/29 10:39:41;;;;;;;3.08;1.60;;;35.10;1.00;;;;;;5073953;28;20271;-72
2022/06/29 10:44:58;;;;;;;4.28;1.50;;;34.10;1.00;;;;;;5075611;28;20183;-72
2022/06/29 10:47:23;;;;;;;1.67;1.58;;;34.30;1.00;;;;;;5074954;28;20168;-72
2022/06/29 10:50:09;;;;;;;4.50;1.77;;;34.30;1.00;;;;;;5073731;28;20713;-72
2022/06/29 10:52:37;;;;;;;1.73;1.63;;;34.20;1.00;;;;;;5073705;28;20624;-72
2022/06/29 10:55:03;;;;;;;2.72;1.55;;;34.60;1.00;;;;;;5074375;28;20201;-72
2022/06/29 10:57:36;;;;;;;13.45;2.53;;;35.00;1.00;;;;;;5075251;28;20638;-72
2022/06/29 11:00:08;;;;;;;6.20;2.08;;;35.70;1.00;;;;;;5074602;28;20180;-72
2022/06/29 11:02:34;;;;;;;8.32;1.98;;;36.00;1.00;;;;;;5074306;28;20708;-72
2022/06/29 11:05:00;;;;;;;2.40;1.50;;;35.10;1.00;;;;;;5074202;28;20181;-72
2022/06/29 11:12:56;;;;;;;3.28;1.85;;;34.50;1.00;;;;;;5075317;28;20227;-72
2022/06/29 11:18:30;;;;;;;4.35;1.73;;;32.70;1.00;;;;;;5072949;28;20211;-72
2022/06/29 11:21:04;;;;;;;4.78;2.25;;;32.20;1.00;;;;;;5074610;28;20226;-71
2022/06/29 11:23:35;;;;;;;2.22;1.50;;;32.50;1.00;;;;;;5073440;28;20178;-71
2022/06/29 11:26:02;;;;;;;2.83;1.90;;;33.10;1.00;;;;;;5074602;28;20640;-71
2022/06/29 11:28:30;;;;;;;5.50;1.50;;;33.50;1.00;;;;;;5074006;28;20218;-71
2022/06/29 11:31:09;;;;;;;4.63;2.00;;;33.40;1.00;;;;;;5074721;28;20227;-72
2022/06/29 11:33:37;;;;;;;4.45;1.83;;;33.70;1.00;;;;;;5074406;28;20218;-73
2022/06/29 11:36:05;;;;;;;2.72;2.10;;;33.40;1.00;;;;;;5074481;28;20176;-73
2022/06/29 11:38:31;;;;;;;1.98;1.73;;;33.30;1.00;;;;;;5073705;28;20208;-73
2022/06/29 11:40:57;;;;;;;2.45;1.50;;;32.90;1.00;;;;;;5073979;28;20196;-72
2022/06/29 11:43:23;;;;;;;4.65;1.67;;;32.10;1.00;;;;;;5072533;28;20192;-72
2022/06/29 11:45:51;;;;;;;5.15;2.30;;;32.50;1.00;;;;;;5074282;28;20227;-72
2022/06/29 11:48:18;;;;;;;2.13;1.40;;;32.70;1.00;;;;;;5074483;28;20628;-72
2022/06/29 11:50:56;;;;;;;3.75;1.80;;;33.00;1.00;;;;;;5073760;28;20199;-72
2022/06/29 11:53:44;;;;;;;3.97;1.83;;;32.80;1.00;;;;;;5073853;28;20222;-72
2022/06/29 11:56:12;;;;;;;2.35;1.80;;;32.30;1.00;;;;;;5073523;28;20252;-72
2022/06/29 11:58:40;;;;;;;2.28;1.50;;;31.60;1.00;;;;;;5073217;28;20169;-73
2022/06/29 12:01:18;;;;;;;3.60;1.55;;;30.80;1.00;;;;;;5072869;28;20182;-72
2022/06/29 12:03:58;;;;;;;2.35;1.30;;;30.90;1.00;;;;;;5073016;28;20254;-72
2022/06/29 12:06:29;;;;;;;4.80;1.85;;;31.10;1.00;;;;;;5072182;28;20234;-72
2022/06/29 12:08:56;;;;;;;2.00;1.63;;;30.80;1.00;;;;;;5073236;28;20255;-72
2022/06/29 12:11:23;;;;;;;4.55;1.90;;;30.50;1.00;;;;;;5073327;28;20204;-72
2022/06/29 12:13:49;;;;;;;3.58;1.80;;;30.20;1.00;;;;;;5072202;28;20498;-71
2022/06/29 12:16:16;;;;;;;7.13;1.92;;;30.30;1.00;;;;;;5073531;28;20241;-71
2022/06/29 12:18:41;;;;;;;5.25;1.90;;;30.50;1.00;;;;;;5073334;28;20165;-71
2022/06/29 12:21:08;;;;;;;4.70;1.70;;;30.40;1.00;;;;;;5073647;28;20161;-71
2022/06/29 12:23:34;;;;;;;7.22;1.55;;;30.60;1.00;;;;;;5073024;28;20176;-71
2022/06/29 12:26:00;;;;;;;4.85;1.60;;;30.90;1.00;;;;;;5072281;28;20172;-71
2022/06/29 12:28:26;;;;;;;2.85;1.63;;;30.90;1.00;;;;;;5072178;28;20191;-72
2022/06/29 12:30:51;;;;;;;2.45;1.70;;;30.60;1.00;;;;;;5073326;28;20208;-70
2022/06/29 12:33:18;;;;;;;4.78;1.55;;;30.40;1.00;;;;;;5072731;28;20715;-70
2022/06/29 12:35:43;;;;;;;2.75;1.52;;;30.50;1.00;;;;;;5071528;28;20182;-70
2022/06/29 12:38:09;;;;;;;3.08;1.40;;;30.40;1.00;;;;;;5072701;28;20164;-71
2022/06/29 12:40:35;;;;;;;5.25;1.80;;;30.50;1.00;;;;;;5072747;28;20185;-71
2022/06/29 12:43:01;;;;;;;2.03;1.45;;;30.80;2.50;;;;;;5072228;28;20685;-71
2022/06/29 12:45:27;;;;;;;6.22;1.80;;;31.00;16.90;;;;;;5072861;28;20180;-71
2022/06/29 12:47:53;;;;;;;1.67;1.50;;;31.00;1.00;;;;;;5071746;28;20175;-71
2022/06/29 12:50:20;;;;;;;3.45;1.58;;;30.90;1.00;;;;;;5071211;28;20164;-71
2022/06/29 12:52:48;;;;;;;3.95;2.13;;;30.90;3.80;;;;;;5072572;28;20222;-71
2022/06/29 12:55:14;;;;;;;2.83;1.33;;;30.70;4.70;;;;;;5072177;28;20200;-71
2022/06/29 12:57:40;;;;;;;6.55;1.48;;;30.60;5.00;;;;;;5072497;28;20180;-71
2022/06/29 13:00:07;;;;;;;3.47;1.60;;;30.60;7.60;;;;;;5072730;28;20160;-71
2022/06/29 13:02:32;;;;;;;3.88;1.83;;;30.30;6.80;;;;;;5071846;28;20169;-71
2022/06/29 13:04:58;;;;;;;1.75;1.63;;;30.30;8.60;;;;;;5072315;28;20521;-71
2022/06/29 13:07:26;;;;;;;5.55;1.75;;;30.20;9.80;;;;;;5072129;28;20683;-71
2022/06/29 13:09:53;;;;;;;3.97;2.55;;;30.20;9.10;;;;;;5070584;28;20261;-71
2022/06/29 13:12:19;;;;;;;3.42;1.70;;;30.30;10.10;;;;;;5072078;28;20208;-71
2022/06/29 13:14:44;;;;;;;3.40;1.70;;;30.30;9.90;;;;;;5073010;28;20196;-70
2022/06/29 13:17:10;;;;;;;2.30;1.60;;;30.60;8.40;;;;;;5071735;28;20660;-71